sensor_id;sensor_type;location;lat;lon;timestamp;pressure;altitude;pressure_sealevel;temperature
19061;BMP280;9663;48.996;8.334;2023-03-03T00:01:10;100603.94;;;7.60
19061;BMP280;9663;48.996;8.334;2023-03-03T00:03:35;100589.50;;;7.53
19061;BMP280;9663;48.996;8.334;2023-03-03T00:06:03;100597.94;;;7.52
19061;BMP280;9663;48.996;8.334;2023-03-03T00:08:29;100592.84;;;7.49
19061;BMP280;9663;48.996;8.334;2023-03-03T00:10:57;100590.28;;;7.46
19061;BMP280;9663;48.996;8.334;2023-03-03T00:13:26;100598.66;;;7.44
19061;BMP280;9663;48.996;8.334;2023-03-03T00:16:04;100599.50;;;7.44
19061;BMP280;9663;48.996;8.334;2023-03-03T00:18:41;100598.66;;;7.44
19061;BMP280;9663;48.996;8.334;2023-03-03T00:21:41;100599.44;;;7.40
19061;BMP280;9663;48.996;8.334;2023-03-03T00:26:43;100608.63;;;7.35
19061;BMP280;9663;48.996;8.334;2023-03-03T00:29:34;100600.16;;;7.31
19061;BMP280;9663;48.996;8.334;2023-03-03T00:34:44;100609.34;;;7.26
19061;BMP280;9663;48.996;8.334;2023-03-03T00:37:34;100605.94;;;7.23
19061;BMP280;9663;48.996;8.334;2023-03-03T00:42:55;100614.28;;;7.18
19061;BMP280;9663;48.996;8.334;2023-03-03T00:45:37;100606.66;;;7.15
19061;BMP280;9663;48.996;8.334;2023-03-03T00:50:58;100609.06;;;7.09
19061;BMP280;9663;48.996;8.334;2023-03-03T00:53:27;100610.72;;;7.07
19061;BMP280;9663;48.996;8.334;2023-03-03T00:55:54;100614.88;;;7.03
19061;BMP280;9663;48.996;8.334;2023-03-03T00:58:21;100622.41;;;7.02
19061;BMP280;9663;48.996;8.334;2023-03-03T01:00:52;100619.03;;;7.00
19061;BMP280;9663;48.996;8.334;2023-03-03T01:03:22;100608.06;;;6.96
19061;BMP280;9663;48.996;8.334;2023-03-03T01:05:50;100604.63;;;6.91
19061;BMP280;9663;48.996;8.334;2023-03-03T01:08:16;100613.81;;;6.89
19061;BMP280;9663;48.996;8.334;2023-03-03T01:10:49;100606.22;;;6.86
19061;BMP280;9663;48.996;8.334;2023-03-03T01:13:18;100606.97;;;6.82
19061;BMP280;9663;48.996;8.334;2023-03-03T01:15:45;100602.72;;;6.79
19061;BMP280;9663;48.996;8.334;2023-03-03T01:18:11;100608.50;;;6.73
19061;BMP280;9663;48.996;8.334;2023-03-03T01:20:38;100606.75;;;6.69
19061;BMP280;9663;48.996;8.334;2023-03-03T01:23:05;100607.53;;;6.65
19061;BMP280;9663;48.996;8.334;2023-03-03T01:25:31;100602.44;;;6.62
19061;BMP280;9663;48.996;8.334;2023-03-03T01:27:57;100611.59;;;6.57
19061;BMP280;9663;48.996;8.334;2023-03-03T01:30:23;100606.53;;;6.56
19061;BMP280;9663;48.996;8.334;2023-03-03T01:32:49;100606.47;;;6.53
19061;BMP280;9663;48.996;8.334;2023-03-03T01:35:15;100603.94;;;6.53
19061;BMP280;9663;48.996;8.334;2023-03-03T01:37:41;100603.88;;;6.50
19061;BMP280;9663;48.996;8.334;2023-03-03T01:40:16;100606.38;;;6.48
19061;BMP280;9663;48.996;8.334;2023-03-03T01:42:42;100597.13;;;6.46
19061;BMP280;9663;48.996;8.334;2023-03-03T01:45:17;100605.47;;;6.43
19061;BMP280;9663;48.996;8.334;2023-03-03T01:47:57;100603.75;;;6.41
19061;BMP280;9663;48.996;8.334;2023-03-03T01:50:55;100592.75;;;6.36
19061;BMP280;9663;48.996;8.334;2023-03-03T01:53:37;100595.19;;;6.33
19061;BMP280;9663;48.996;8.334;2023-03-03T01:56:08;100607.75;;;6.32
19061;BMP280;9663;48.996;8.334;2023-03-03T01:58:39;100596.81;;;6.30
19061;BMP280;9663;48.996;8.334;2023-03-03T02:01:15;100595.94;;;6.28
19061;BMP280;9663;48.996;8.334;2023-03-03T02:03:43;100598.41;;;6.25
19061;BMP280;9663;48.996;8.334;2023-03-03T02:06:13;100598.31;;;6.20
19061;BMP280;9663;48.996;8.334;2023-03-03T02:08:50;100591.50;;;6.15
19061;BMP280;9663;48.996;8.334;2023-03-03T02:11:20;100596.44;;;6.10
19061;BMP280;9663;48.996;8.334;2023-03-03T02:13:46;100596.34;;;6.06
19061;BMP280;9663;48.996;8.334;2023-03-03T02:16:12;100592.97;;;6.04
19061;BMP280;9663;48.996;8.334;2023-03-03T02:18:38;100591.28;;;6.03
19061;BMP280;9663;48.996;8.334;2023-03-03T02:21:18;100586.22;;;6.01
19061;BMP280;9663;48.996;8.334;2023-03-03T02:26:30;100587.84;;;5.98
19061;BMP280;9663;48.996;8.334;2023-03-03T02:28:57;100585.34;;;5.99
19061;BMP280;9663;48.996;8.334;2023-03-03T02:31:27;100581.19;;;6.01
19061;BMP280;9663;48.996;8.334;2023-03-03T02:33:54;100582.84;;;6.01
19061;BMP280;9663;48.996;8.334;2023-03-03T02:36:30;100597.13;;;6.02
19061;BMP280;9663;48.996;8.334;2023-03-03T02:39:21;100595.34;;;5.96
19061;BMP280;9663;48.996;8.334;2023-03-03T02:42:12;100588.53;;;5.93
19061;BMP280;9663;48.996;8.334;2023-03-03T02:44:40;100601.09;;;5.91
19061;BMP280;9663;48.996;8.334;2023-03-03T02:47:07;100589.31;;;5.89
19061;BMP280;9663;48.996;8.334;2023-03-03T02:49:35;100601.94;;;5.90
19061;BMP280;9663;48.996;8.334;2023-03-03T02:52:04;100598.59;;;5.91
19061;BMP280;9663;48.996;8.334;2023-03-03T02:54:31;100596.88;;;5.89
19061;BMP280;9663;48.996;8.334;2023-03-03T02:56:58;100593.50;;;5.90
19061;BMP280;9663;48.996;8.334;2023-03-03T02:59:24;100594.34;;;5.89
19061;BMP280;9663;48.996;8.334;2023-03-03T03:01:51;100591.00;;;5.88
19061;BMP280;9663;48.996;8.334;2023-03-03T03:04:27;100594.28;;;5.86
19061;BMP280;9663;48.996;8.334;2023-03-03T03:06:53;100592.56;;;5.83
19061;BMP280;9663;48.996;8.334;2023-03-03T03:09:22;100581.59;;;5.81
19061;BMP280;9663;48.996;8.334;2023-03-03T03:11:48;100593.31;;;5.79
19061;BMP280;9663;48.996;8.334;2023-03-03T03:14:14;100593.22;;;5.75
19061;BMP280;9663;48.996;8.334;2023-03-03T03:16:40;100599.03;;;5.72
19061;BMP280;9663;48.996;8.334;2023-03-03T03:19:07;100596.47;;;5.71
19061;BMP280;9663;48.996;8.334;2023-03-03T03:21:33;100601.41;;;5.66
19061;BMP280;9663;48.996;8.334;2023-03-03T03:23:59;100605.56;;;5.64
19061;BMP280;9663;48.996;8.334;2023-03-03T03:26:25;100606.41;;;5.63
19061;BMP280;9663;48.996;8.334;2023-03-03T03:28:51;100602.19;;;5.62
19061;BMP280;9663;48.996;8.334;2023-03-03T03:31:20;100616.41;;;5.60
19061;BMP280;9663;48.996;8.334;2023-03-03T03:33:46;100613.81;;;5.57
19061;BMP280;9663;48.996;8.334;2023-03-03T03:36:12;100612.03;;;5.53
19061;BMP280;9663;48.996;8.334;2023-03-03T03:38:38;100613.66;;;5.51
19061;BMP280;9663;48.996;8.334;2023-03-03T03:41:05;100613.59;;;5.49
19061;BMP280;9663;48.996;8.334;2023-03-03T03:43:32;100618.63;;;5.49
19061;BMP280;9663;48.996;8.334;2023-03-03T03:45:58;100616.13;;;5.49
19061;BMP280;9663;48.996;8.334;2023-03-03T03:48:24;100620.31;;;5.48
19061;BMP280;9663;48.996;8.334;2023-03-03T03:50:50;100621.97;;;5.48
19061;BMP280;9663;48.996;8.334;2023-03-03T03:53:17;100623.66;;;5.47
19061;BMP280;9663;48.996;8.334;2023-03-03T03:55:44;100627.84;;;5.48
19061;BMP280;9663;48.996;8.334;2023-03-03T03:58:14;100632.84;;;5.47
19061;BMP280;9663;48.996;8.334;2023-03-03T04:00:42;100620.22;;;5.45
19061;BMP280;9663;48.996;8.334;2023-03-03T04:03:09;100620.22;;;5.45
19061;BMP280;9663;48.996;8.334;2023-03-03T04:05:35;100629.47;;;5.45
19061;BMP280;9663;48.996;8.334;2023-03-03T04:08:00;100628.66;;;5.46
19061;BMP280;9663;48.996;8.334;2023-03-03T04:10:26;100627.75;;;5.44
19061;BMP280;9663;48.996;8.334;2023-03-03T04:12:52;100623.50;;;5.41
19061;BMP280;9663;48.996;8.334;2023-03-03T04:15:18;100621.75;;;5.37
19061;BMP280;9663;48.996;8.334;2023-03-03T04:17:43;100630.91;;;5.35
19061;BMP280;9663;48.996;8.334;2023-03-03T04:20:13;100625.00;;;5.33
19061;BMP280;9663;48.996;8.334;2023-03-03T04:22:40;100624.09;;;5.30
19061;BMP280;9663;48.996;8.334;2023-03-03T04:25:07;100621.53;;;5.28
19061;BMP280;9663;48.996;8.334;2023-03-03T04:27:34;100628.13;;;5.23
19061;BMP280;9663;48.996;8.334;2023-03-03T04:30:01;100642.28;;;5.18
19061;BMP280;9663;48.996;8.334;2023-03-03T04:32:28;100637.13;;;5.14
19061;BMP280;9663;48.996;8.334;2023-03-03T04:34:55;100644.63;;;5.12
19061;BMP280;9663;48.996;8.334;2023-03-03T04:37:21;100637.94;;;5.11
19061;BMP280;9663;48.996;8.334;2023-03-03T04:39:47;100638.72;;;5.10
19061;BMP280;9663;48.996;8.334;2023-03-03T04:42:12;100643.72;;;5.09
19061;BMP280;9663;48.996;8.334;2023-03-03T04:44:38;100640.31;;;5.07
19061;BMP280;9663;48.996;8.334;2023-03-03T04:47:04;100636.97;;;5.07
19061;BMP280;9663;48.996;8.334;2023-03-03T04:49:29;100637.78;;;5.06
19061;BMP280;9663;48.996;8.334;2023-03-03T04:51:56;100639.44;;;5.05
19061;BMP280;9663;48.996;8.334;2023-03-03T04:54:21;100646.16;;;5.05
19061;BMP280;9663;48.996;8.334;2023-03-03T04:56:47;100643.56;;;5.02
19061;BMP280;9663;48.996;8.334;2023-03-03T04:59:13;100646.88;;;5.01
19061;BMP280;9663;48.996;8.334;2023-03-03T05:01:39;100651.91;;;5.01
19061;BMP280;9663;48.996;8.334;2023-03-03T05:04:05;100641.81;;;4.99
19061;BMP280;9663;48.996;8.334;2023-03-03T05:06:31;100641.81;;;4.99
19061;BMP280;9663;48.996;8.334;2023-03-03T05:08:57;100653.59;;;5.02
19061;BMP280;9663;48.996;8.334;2023-03-03T05:11:22;100644.34;;;5.01
19061;BMP280;9663;48.996;8.334;2023-03-03T05:13:48;100650.22;;;5.01
19061;BMP280;9663;48.996;8.334;2023-03-03T05:16:13;100649.38;;;5.01
19061;BMP280;9663;48.996;8.334;2023-03-03T05:18:39;100651.84;;;4.99
19061;BMP280;9663;48.996;8.334;2023-03-03T05:21:06;100648.50;;;4.99
19061;BMP280;9663;48.996;8.334;2023-03-03T05:23:32;100650.94;;;4.96
19061;BMP280;9663;48.996;8.334;2023-03-03T05:25:57;100655.88;;;4.93
19061;BMP280;9663;48.996;8.334;2023-03-03T05:28:23;100651.56;;;4.87
19061;BMP280;9663;48.996;8.334;2023-03-03T05:30:49;100656.47;;;4.83
19061;BMP280;9663;48.996;8.334;2023-03-03T05:33:16;100660.59;;;4.79
19061;BMP280;9663;48.996;8.334;2023-03-03T05:35:42;100668.03;;;4.76
19061;BMP280;9663;48.996;8.334;2023-03-03T05:38:08;100667.13;;;4.73
19061;BMP280;9663;48.996;8.334;2023-03-03T05:40:34;100673.78;;;4.71
19061;BMP280;9663;48.996;8.334;2023-03-03T05:42:59;100670.41;;;4.70
19061;BMP280;9663;48.996;8.334;2023-03-03T05:45:25;100670.41;;;4.70
19061;BMP280;9663;48.996;8.334;2023-03-03T05:47:51;100675.53;;;4.75
19061;BMP280;9663;48.996;8.334;2023-03-03T05:50:22;100680.66;;;4.78
19061;BMP280;9663;48.996;8.334;2023-03-03T05:52:49;100684.91;;;4.80
19061;BMP280;9663;48.996;8.334;2023-03-03T05:55:16;100688.31;;;4.82
19061;BMP280;9663;48.996;8.334;2023-03-03T05:57:42;100686.69;;;4.84
19061;BMP280;9663;48.996;8.334;2023-03-03T06:00:09;100690.16;;;4.89
19061;BMP280;9663;48.996;8.334;2023-03-03T06:02:35;100686.94;;;4.93
19061;BMP280;9663;48.996;8.334;2023-03-03T06:05:00;100685.34;;;4.97
19061;BMP280;9663;48.996;8.334;2023-03-03T06:07:26;100698.03;;;5.03
19061;BMP280;9663;48.996;8.334;2023-03-03T06:09:52;100689.78;;;5.07
19061;BMP280;9663;48.996;8.334;2023-03-03T06:12:18;100700.00;;;5.14
19061;BMP280;9663;48.996;8.334;2023-03-03T06:14:44;100698.47;;;5.20
19061;BMP280;9663;48.996;8.334;2023-03-03T06:17:09;100703.75;;;5.29
19061;BMP280;9663;48.996;8.334;2023-03-03T06:19:36;100699.75;;;5.39
19061;BMP280;9663;48.996;8.334;2023-03-03T06:22:02;100713.44;;;5.50
19061;BMP280;9663;48.996;8.334;2023-03-03T06:24:28;100714.50;;;5.59
19061;BMP280;9663;48.996;8.334;2023-03-03T06:26:57;100704.66;;;5.69
19061;BMP280;9663;48.996;8.334;2023-03-03T06:29:23;100709.94;;;5.78
19061;BMP280;9663;48.996;8.334;2023-03-03T06:31:49;100711.81;;;5.87
19061;BMP280;9663;48.996;8.334;2023-03-03T06:34:14;100718.72;;;5.96
19061;BMP280;9663;48.996;8.334;2023-03-03T06:36:40;100721.41;;;6.04
19061;BMP280;9663;48.996;8.334;2023-03-03T06:39:06;100724.13;;;6.13
19061;BMP280;9663;48.996;8.334;2023-03-03T06:41:32;100724.28;;;6.22
19061;BMP280;9663;48.996;8.334;2023-03-03T06:43:57;100716.13;;;6.33
19061;BMP280;9663;48.996;8.334;2023-03-03T06:46:26;100723.88;;;6.43
19061;BMP280;9663;48.996;8.334;2023-03-03T06:48:52;100719.81;;;6.50
19061;BMP280;9663;48.996;8.334;2023-03-03T06:51:27;100724.25;;;6.61
19061;BMP280;9663;48.996;8.334;2023-03-03T06:53:57;100734.47;;;6.69
19061;BMP280;9663;48.996;8.334;2023-03-03T06:56:26;100724.50;;;6.76
19061;BMP280;9663;48.996;8.334;2023-03-03T06:59:00;100731.38;;;6.84
19061;BMP280;9663;48.996;8.334;2023-03-03T07:01:34;100732.31;;;6.89
19061;BMP280;9663;48.996;8.334;2023-03-03T07:04:06;100743.34;;;6.94
19061;BMP280;9663;48.996;8.334;2023-03-03T07:06:34;100739.22;;;6.98
19061;BMP280;9663;48.996;8.334;2023-03-03T07:09:00;100742.72;;;7.04
19061;BMP280;9663;48.996;8.334;2023-03-03T07:11:26;100736.88;;;7.08
19061;BMP280;9663;48.996;8.334;2023-03-03T07:13:54;100731.94;;;7.14
19061;BMP280;9663;48.996;8.334;2023-03-03T07:16:26;100733.72;;;7.20
19061;BMP280;9663;48.996;8.334;2023-03-03T07:18:56;100734.66;;;7.26
19061;BMP280;9663;48.996;8.334;2023-03-03T07:21:35;100733.06;;;7.31
19061;BMP280;9663;48.996;8.334;2023-03-03T07:24:27;100738.16;;;7.34
19061;BMP280;9663;48.996;8.334;2023-03-03T07:29:37;100744.19;;;7.43
19061;BMP280;9663;48.996;8.334;2023-03-03T07:32:23;100746.00;;;7.50
19061;BMP280;9663;48.996;8.334;2023-03-03T07:34:53;100748.63;;;7.58
19061;BMP280;9663;48.996;8.334;2023-03-03T07:37:36;100757.97;;;7.64
19061;BMP280;9663;48.996;8.334;2023-03-03T07:42:58;100752.38;;;7.82
19061;BMP280;9663;48.996;8.334;2023-03-03T07:45:35;100756.75;;;7.93
19061;BMP280;9663;48.996;8.334;2023-03-03T07:50:48;100767.88;;;8.07
19061;BMP280;9663;48.996;8.334;2023-03-03T07:53:26;100757.88;;;8.11
19061;BMP280;9663;48.996;8.334;2023-03-03T07:55:53;100764.66;;;8.15
19061;BMP280;9663;48.996;8.334;2023-03-03T07:58:35;100771.50;;;8.22
19061;BMP280;9663;48.996;8.334;2023-03-03T08:01:40;100772.38;;;8.26
19061;BMP280;9663;48.996;8.334;2023-03-03T08:04:45;100780.91;;;8.35
19061;BMP280;9663;48.996;8.334;2023-03-03T08:07:18;100770.94;;;8.46
19061;BMP280;9663;48.996;8.334;2023-03-03T08:09:57;100783.72;;;8.57
19061;BMP280;9663;48.996;8.334;2023-03-03T08:12:39;100782.97;;;8.64
19061;BMP280;9663;48.996;8.334;2023-03-03T08:15:30;100788.91;;;8.65
19061;BMP280;9663;48.996;8.334;2023-03-03T08:18:00;100773.72;;;8.65
19061;BMP280;9663;48.996;8.334;2023-03-03T08:20:48;100777.94;;;8.66
19061;BMP280;9663;48.996;8.334;2023-03-03T08:23:16;100775.38;;;8.64
19061;BMP280;9663;48.996;8.334;2023-03-03T08:25:43;100782.94;;;8.63
19061;BMP280;9663;48.996;8.334;2023-03-03T08:28:10;100782.94;;;8.60
19061;BMP280;9663;48.996;8.334;2023-03-03T08:30:37;100777.78;;;8.54
19061;BMP280;9663;48.996;8.334;2023-03-03T08:33:03;100784.44;;;8.48
19061;BMP280;9663;48.996;8.334;2023-03-03T08:35:29;100786.94;;;8.45
19061;BMP280;9663;48.996;8.334;2023-03-03T08:37:54;100786.91;;;8.42
19061;BMP280;9663;48.996;8.334;2023-03-03T08:40:20;100786.88;;;8.40
19061;BMP280;9663;48.996;8.334;2023-03-03T08:42:46;100791.06;;;8.38
19061;BMP280;9663;48.996;8.334;2023-03-03T08:45:12;100785.16;;;8.38
19061;BMP280;9663;48.996;8.334;2023-03-03T08:47:38;100779.28;;;8.37
19061;BMP280;9663;48.996;8.334;2023-03-03T08:50:05;100775.09;;;8.41
19061;BMP280;9663;48.996;8.334;2023-03-03T08:52:31;100776.88;;;8.49
19061;BMP280;9663;48.996;8.334;2023-03-03T08:54:56;100776.19;;;8.60
19061;BMP280;9663;48.996;8.334;2023-03-03T08:57:22;100782.22;;;8.70
19061;BMP280;9663;48.996;8.334;2023-03-03T08:59:47;100775.59;;;8.84
19061;BMP280;9663;48.996;8.334;2023-03-03T09:02:13;100781.66;;;8.97
19061;BMP280;9663;48.996;8.334;2023-03-03T09:04:40;100781.81;;;9.11
19061;BMP280;9663;48.996;8.334;2023-03-03T09:07:05;100785.28;;;9.23
19061;BMP280;9663;48.996;8.334;2023-03-03T09:09:31;100788.78;;;9.34
19061;BMP280;9663;48.996;8.334;2023-03-03T09:12:02;100793.91;;;9.43
19061;BMP280;9663;48.996;8.334;2023-03-03T09:14:31;100801.59;;;9.56
19061;BMP280;9663;48.996;8.334;2023-03-03T09:16:57;100798.31;;;9.65
19061;BMP280;9663;48.996;8.334;2023-03-03T09:19:34;100805.16;;;9.73
19061;BMP280;9663;48.996;8.334;2023-03-03T09:22:22;100809.47;;;9.86
19061;BMP280;9663;48.996;8.334;2023-03-03T09:27:33;100802.06;;;10.13
19061;BMP280;9663;48.996;8.334;2023-03-03T09:32:51;100810.66;;;10.34
19061;BMP280;9663;48.996;8.334;2023-03-03T09:35:38;100805.63;;;10.46
19061;BMP280;9663;48.996;8.334;2023-03-03T09:38:30;100798.91;;;10.57
19061;BMP280;9663;48.996;8.334;2023-03-03T09:44:29;100799.84;;;10.85
19061;BMP280;9663;48.996;8.334;2023-03-03T09:50:32;100798.25;;;11.23
19061;BMP280;9663;48.996;8.334;2023-03-03T10:01:42;100797.44;;;11.91
19061;BMP280;9663;48.996;8.334;2023-03-03T10:10:43;100801.56;;;12.46
19061;BMP280;9663;48.996;8.334;2023-03-03T10:13:49;100795.59;;;12.53
19061;BMP280;9663;48.996;8.334;2023-03-03T10:19:34;100794.66;;;12.71
19061;BMP280;9663;48.996;8.334;2023-03-03T10:28:03;100795.41;;;12.98
19061;BMP280;9663;48.996;8.334;2023-03-03T10:30:47;100792.81;;;13.07
19061;BMP280;9663;48.996;8.334;2023-03-03T10:33:36;100797.88;;;13.13
19061;BMP280;9663;48.996;8.334;2023-03-03T10:39:44;100791.03;;;13.23
19061;BMP280;9663;48.996;8.334;2023-03-03T10:45:30;100788.25;;;13.53
19061;BMP280;9663;48.996;8.334;2023-03-03T10:56:39;100787.97;;;13.87
19061;BMP280;9663;48.996;8.334;2023-03-03T11:02:26;100797.13;;;14.10
19061;BMP280;9663;48.996;8.334;2023-03-03T11:08:40;100802.91;;;14.24
19061;BMP280;9663;48.996;8.334;2023-03-03T11:11:40;100802.06;;;14.25
19061;BMP280;9663;48.996;8.334;2023-03-03T11:14:32;100795.19;;;14.32
19061;BMP280;9663;48.996;8.334;2023-03-03T11:17:16;100792.50;;;14.41
19061;BMP280;9663;48.996;8.334;2023-03-03T11:23:05;100798.25;;;14.57
19061;BMP280;9663;48.996;8.334;2023-03-03T11:31:26;100797.06;;;14.84
19061;BMP280;9663;48.996;8.334;2023-03-03T11:37:00;100770.06;;;15.79
19061;BMP280;9663;48.996;8.334;2023-03-03T11:39:28;100757.59;;;16.91
19061;BMP280;9663;48.996;8.334;2023-03-03T11:42:43;100753.16;;;18.35
19061;BMP280;9663;48.996;8.334;2023-03-03T11:45:39;100749.66;;;19.73
19061;BMP280;9663;48.996;8.334;2023-03-03T11:51:46;100721.97;;;21.37
19061;BMP280;9663;48.996;8.334;2023-03-03T12:00:17;100727.09;;;23.46
19061;BMP280;9663;48.996;8.334;2023-03-03T12:09:02;100711.00;;;24.39
19061;BMP280;9663;48.996;8.334;2023-03-03T12:11:54;100706.25;;;24.77
19061;BMP280;9663;48.996;8.334;2023-03-03T12:24:03;100693.88;;;25.71
19061;BMP280;9663;48.996;8.334;2023-03-03T12:32:26;100691.66;;;25.79
19061;BMP280;9663;48.996;8.334;2023-03-03T12:35:35;100681.09;;;25.96
19061;BMP280;9663;48.996;8.334;2023-03-03T12:38:19;100680.00;;;26.00
19061;BMP280;9663;48.996;8.334;2023-03-03T12:41:09;100681.59;;;26.16
19061;BMP280;9663;48.996;8.334;2023-03-03T12:44:01;100679.44;;;26.50
19061;BMP280;9663;48.996;8.334;2023-03-03T12:49:04;100678.38;;;27.07
19061;BMP280;9663;48.996;8.334;2023-03-03T12:51:49;100672.16;;;27.21
19061;BMP280;9663;48.996;8.334;2023-03-03T12:54:46;100675.09;;;27.55
19061;BMP280;9663;48.996;8.334;2023-03-03T12:57:27;100671.25;;;27.73
19061;BMP280;9663;48.996;8.334;2023-03-03T13:00:23;100681.34;;;27.65
19061;BMP280;9663;48.996;8.334;2023-03-03T13:08:24;100666.00;;;27.86
19061;BMP280;9663;48.996;8.334;2023-03-03T13:14:01;100667.91;;;28.21
19061;BMP280;9663;48.996;8.334;2023-03-03T13:16:46;100681.56;;;28.24
19061;BMP280;9663;48.996;8.334;2023-03-03T13:19:25;100674.16;;;28.31
19061;BMP280;9663;48.996;8.334;2023-03-03T13:22:07;100672.97;;;28.35
19061;BMP280;9663;48.996;8.334;2023-03-03T13:27:18;100672.69;;;28.27
19061;BMP280;9663;48.996;8.334;2023-03-03T13:29:53;100667.50;;;28.14
19061;BMP280;9663;48.996;8.334;2023-03-03T13:32:26;100671.75;;;28.15
19061;BMP280;9663;48.996;8.334;2023-03-03T13:35:10;100666.97;;;28.09
19061;BMP280;9663;48.996;8.334;2023-03-03T13:37:52;100661.03;;;28.07
19061;BMP280;9663;48.996;8.334;2023-03-03T13:40:40;100661.75;;;27.85
19061;BMP280;9663;48.996;8.334;2023-03-03T13:43:28;100657.06;;;27.90
19061;BMP280;9663;48.996;8.334;2023-03-03T13:52:06;100649.66;;;27.59
19061;BMP280;9663;48.996;8.334;2023-03-03T13:54:52;100651.03;;;26.87
19061;BMP280;9663;48.996;8.334;2023-03-03T13:57:40;100656.88;;;25.81
19061;BMP280;9663;48.996;8.334;2023-03-03T14:00:46;100651.78;;;24.47
19061;BMP280;9663;48.996;8.334;2023-03-03T14:03:50;100665.53;;;23.17
19061;BMP280;9663;48.996;8.334;2023-03-03T14:06:25;100658.16;;;22.20
19061;BMP280;9663;48.996;8.334;2023-03-03T14:08:57;100658.13;;;21.42
19061;BMP280;9663;48.996;8.334;2023-03-03T14:11:42;100660.44;;;20.66
19061;BMP280;9663;48.996;8.334;2023-03-03T14:17:07;100652.34;;;19.60
19061;BMP280;9663;48.996;8.334;2023-03-03T14:19:47;100663.25;;;19.16
19061;BMP280;9663;48.996;8.334;2023-03-03T14:22:25;100660.84;;;18.84
19061;BMP280;9663;48.996;8.334;2023-03-03T14:25:05;100661.75;;;18.56
19061;BMP280;9663;48.996;8.334;2023-03-03T14:35:47;100655.59;;;18.03
19061;BMP280;9663;48.996;8.334;2023-03-03T14:38:19;100654.84;;;17.99
19061;BMP280;9663;48.996;8.334;2023-03-03T14:40:47;100659.31;;;17.93
19061;BMP280;9663;48.996;8.334;2023-03-03T14:43:39;100660.44;;;17.83
19061;BMP280;9663;48.996;8.334;2023-03-03T14:49:00;100660.66;;;17.76
19061;BMP280;9663;48.996;8.334;2023-03-03T14:51:32;100662.03;;;17.89
19061;BMP280;9663;48.996;8.334;2023-03-03T14:54:23;100660.06;;;18.55
19061;BMP280;9663;48.996;8.334;2023-03-03T14:57:10;100646.47;;;19.56
19061;BMP280;9663;48.996;8.334;2023-03-03T14:59:36;100639.34;;;20.55
19061;BMP280;9663;48.996;8.334;2023-03-03T15:02:30;100624.16;;;21.72
19061;BMP280;9663;48.996;8.334;2023-03-03T15:05:23;100628.09;;;22.72
19061;BMP280;9663;48.996;8.334;2023-03-03T15:12:57;100612.38;;;24.09
19061;BMP280;9663;48.996;8.334;2023-03-03T15:15:25;100607.03;;;24.58
19061;BMP280;9663;48.996;8.334;2023-03-03T15:21:17;100602.63;;;25.34
19061;BMP280;9663;48.996;8.334;2023-03-03T15:27:20;100591.44;;;25.61
19061;BMP280;9663;48.996;8.334;2023-03-03T15:30:17;100593.19;;;25.61
19061;BMP280;9663;48.996;8.334;2023-03-03T15:39:08;100597.00;;;25.12
19061;BMP280;9663;48.996;8.334;2023-03-03T15:41:46;100600.69;;;25.08
19061;BMP280;9663;48.996;8.334;2023-03-03T15:45:14;100595.69;;;25.05
19061;BMP280;9663;48.996;8.334;2023-03-03T15:51:07;100608.59;;;24.76
19061;BMP280;9663;48.996;8.334;2023-03-03T15:57:12;100615.66;;;23.96
19061;BMP280;9663;48.996;8.334;2023-03-03T16:02:54;100620.72;;;23.33
19061;BMP280;9663;48.996;8.334;2023-03-03T16:05:31;100613.84;;;23.16
19061;BMP280;9663;48.996;8.334;2023-03-03T16:08:18;100621.19;;;22.89
19061;BMP280;9663;48.996;8.334;2023-03-03T16:11:06;100616.81;;;22.73
19061;BMP280;9663;48.996;8.334;2023-03-03T16:13:58;100628.88;;;22.56
19061;BMP280;9663;48.996;8.334;2023-03-03T16:16:42;100632.53;;;22.33
19061;BMP280;9663;48.996;8.334;2023-03-03T16:19:19;100627.38;;;21.95
19061;BMP280;9663;48.996;8.334;2023-03-03T16:22:55;100631.03;;;21.32
19061;BMP280;9663;48.996;8.334;2023-03-03T16:25:51;100638.16;;;20.85
19061;BMP280;9663;48.996;8.334;2023-03-03T16:28:34;100655.50;;;20.37
19061;BMP280;9663;48.996;8.334;2023-03-03T16:31:18;100657.28;;;19.90
19061;BMP280;9663;48.996;8.334;2023-03-03T16:34:18;100655.69;;;19.37
19061;BMP280;9663;48.996;8.334;2023-03-03T16:37:15;100660.50;;;18.95
19061;BMP280;9663;48.996;8.334;2023-03-03T16:40:10;100658.31;;;18.57
19061;BMP280;9663;48.996;8.334;2023-03-03T16:42:34;100661.16;;;18.20
19061;BMP280;9663;48.996;8.334;2023-03-03T16:45:23;100674.25;;;17.79
19061;BMP280;9663;48.996;8.334;2023-03-03T16:48:18;100667.66;;;17.38
19061;BMP280;9663;48.996;8.334;2023-03-03T16:51:20;100679.72;;;16.98
19061;BMP280;9663;48.996;8.334;2023-03-03T17:00:34;100698.81;;;16.06
19061;BMP280;9663;48.996;8.334;2023-03-03T17:03:22;100704.63;;;15.69
19061;BMP280;9663;48.996;8.334;2023-03-03T17:06:05;100712.78;;;15.42
19061;BMP280;9663;48.996;8.334;2023-03-03T17:08:51;100707.13;;;15.22
19061;BMP280;9663;48.996;8.334;2023-03-03T17:17:56;100721.75;;;14.54
19061;BMP280;9663;48.996;8.334;2023-03-03T17:23:41;100722.00;;;14.32
19061;BMP280;9663;48.996;8.334;2023-03-03T17:32:06;100733.63;;;13.82
19061;BMP280;9663;48.996;8.334;2023-03-03T17:37:19;100744.84;;;13.62
19061;BMP280;9663;48.996;8.334;2023-03-03T17:45:15;100760.41;;;13.26
19061;BMP280;9663;48.996;8.334;2023-03-03T17:51:19;100770.78;;;12.98
19061;BMP280;9663;48.996;8.334;2023-03-03T17:59:56;100786.19;;;12.70
19061;BMP280;9663;48.996;8.334;2023-03-03T18:06:00;100793.94;;;12.46
19061;BMP280;9663;48.996;8.334;2023-03-03T18:11:56;100795.66;;;12.28
19061;BMP280;9663;48.996;8.334;2023-03-03T18:14:44;100798.25;;;12.24
19061;BMP280;9663;48.996;8.334;2023-03-03T18:39:49;100824.56;;;11.77
19061;BMP280;9663;48.996;8.334;2023-03-03T18:42:41;100823.72;;;11.73
19061;BMP280;9663;48.996;8.334;2023-03-03T18:48:12;100823.72;;;11.64
19061;BMP280;9663;48.996;8.334;2023-03-03T18:50:40;100822.88;;;11.59
19061;BMP280;9663;48.996;8.334;2023-03-03T18:53:16;100832.19;;;11.56
19061;BMP280;9663;48.996;8.334;2023-03-03T18:55:48;100830.50;;;11.53
19061;BMP280;9663;48.996;8.334;2023-03-03T19:03:54;100839.81;;;11.47
19061;BMP280;9663;48.996;8.334;2023-03-03T19:09:00;100838.06;;;11.43
19061;BMP280;9663;48.996;8.334;2023-03-03T19:11:39;100834.69;;;11.43
19061;BMP280;9663;48.996;8.334;2023-03-03T19:14:33;100844.84;;;11.37
19061;BMP280;9663;48.996;8.334;2023-03-03T19:20:13;100840.59;;;11.30
19061;BMP280;9663;48.996;8.334;2023-03-03T19:22:49;100844.81;;;11.29
19061;BMP280;9663;48.996;8.334;2023-03-03T19:25:26;100848.19;;;11.28